createdAt,value
2022-08-08T00:00:53.522Z,9.10
2022-08-08T00:02:31.187Z,7.90
2022-08-08T00:05:14.549Z,7.70
2022-08-08T00:07:58.739Z,7.70
2022-08-08T00:10:41.142Z,9.00
2022-08-08T00:14:16.405Z,8.20
2022-08-08T00:16:25.389Z,8.40
2022-08-08T00:21:43.885Z,10.80
2022-08-08T00:24:19.794Z,10.00
2022-08-08T00:27:09.445Z,8.70
2022-08-08T00:29:48.763Z,9.10
2022-08-08T00:32:38.259Z,9.20
2022-08-08T00:35:34.574Z,10.50
2022-08-08T00:38:44.421Z,10.40
2022-08-08T00:42:08.851Z,9.40
2022-08-08T00:45:38.389Z,8.50
2022-08-08T00:48:39.268Z,7.90
2022-08-08T00:51:45.119Z,9.80
2022-08-08T00:55:01.753Z,8.80
2022-08-08T00:58:18.754Z,7.80
2022-08-08T01:01:04.038Z,12.30
2022-08-08T01:04:07.961Z,8.50
2022-08-08T01:07:55.506Z,8.60
2022-08-08T01:11:08.798Z,6.70
2022-08-08T01:14:54.186Z,9.50
2022-08-08T01:17:53.944Z,8.70
2022-08-08T01:20:54.508Z,9.00
2022-08-08T01:27:44.063Z,11.30
2022-08-08T01:31:02.657Z,10.70
2022-08-08T01:34:20.180Z,8.60
2022-08-08T01:37:51.218Z,8.80
2022-08-08T01:40:36.000Z,9.10
2022-08-08T01:43:23.657Z,9.40
2022-08-08T01:46:04.572Z,7.20
2022-08-08T01:48:54.347Z,8.50
2022-08-08T01:52:43.714Z,10.30
2022-08-08T01:55:25.397Z,8.50
2022-08-08T01:58:12.287Z,8.80
2022-08-08T02:00:59.002Z,9.00
2022-08-08T02:06:44.792Z,10.60
2022-08-08T02:10:01.786Z,9.20
2022-08-08T02:12:30.436Z,8.60
2022-08-08T02:15:16.408Z,8.80
2022-08-08T02:18:00.295Z,9.20
2022-08-08T02:21:01.040Z,10.60
2022-08-08T02:23:42.761Z,8.20
2022-08-08T02:26:26.620Z,7.60
2022-08-08T02:29:18.969Z,9.20
2022-08-08T02:32:26.108Z,8.10
2022-08-08T02:35:30.158Z,7.60
2022-08-08T02:38:44.912Z,7.80
2022-08-08T02:42:03.911Z,7.20
2022-08-08T02:45:21.701Z,10.40
2022-08-08T02:48:28.245Z,8.90
2022-08-08T02:51:46.691Z,10.50
2022-08-08T02:55:10.333Z,9.20
2022-08-08T02:58:31.855Z,9.50
2022-08-08T03:05:05.204Z,9.30
2022-08-08T03:07:58.290Z,7.90
2022-08-08T03:11:25.817Z,7.50
2022-08-08T03:15:58.743Z,10.20
2022-08-08T03:17:40.649Z,7.60
2022-08-08T03:20:12.180Z,9.80
2022-08-08T03:22:56.662Z,8.70
2022-08-08T03:25:35.584Z,10.90
2022-08-08T03:28:19.033Z,8.90
2022-08-08T03:31:07.937Z,7.70
2022-08-08T03:33:54.880Z,9.70
2022-08-08T03:36:33.844Z,10.70
2022-08-08T03:39:14.655Z,9.70
2022-08-08T03:42:12.052Z,9.10
2022-08-08T03:44:52.018Z,7.90
2022-08-08T03:47:45.355Z,10.30
2022-08-08T03:50:24.696Z,8.50
2022-08-08T03:53:03.507Z,8.90
2022-08-08T03:55:55.683Z,9.30
2022-08-08T03:58:37.456Z,8.30
2022-08-08T04:02:13.316Z,9.70
2022-08-08T04:04:38.102Z,8.40
2022-08-08T04:07:11.645Z,9.20
2022-08-08T04:10:05.590Z,13.30
2022-08-08T04:12:41.770Z,8.90
2022-08-08T04:15:15.993Z,10.40
2022-08-08T04:17:58.731Z,9.10
2022-08-08T04:20:33.244Z,10.90
2022-08-08T04:23:07.801Z,11.30
2022-08-08T04:25:41.894Z,9.60
2022-08-08T04:28:36.716Z,9.50
2022-08-08T04:31:10.698Z,11.30
2022-08-08T04:34:04.194Z,7.50
2022-08-08T04:36:37.589Z,17.80
2022-08-08T04:40:04.290Z,11.00
2022-08-08T04:42:03.989Z,9.70
2022-08-08T04:44:37.238Z,9.50
2022-08-08T04:47:11.840Z,9.80
2022-08-08T04:49:58.753Z,9.40
2022-08-08T04:52:36.845Z,8.40
2022-08-08T04:55:18.434Z,8.00
2022-08-08T04:57:52.223Z,9.60
2022-08-08T05:00:32.674Z,5.80
2022-08-08T05:03:06.328Z,10.90
2022-08-08T05:05:46.443Z,7.60
2022-08-08T05:08:28.808Z,7.80
2022-08-08T05:11:03.806Z,8.40
2022-08-08T05:13:58.147Z,7.10
2022-08-08T05:16:47.982Z,7.10
2022-08-08T05:20:11.780Z,9.30
2022-08-08T05:22:18.833Z,5.50
2022-08-08T05:24:54.950Z,8.80
2022-08-08T05:27:33.402Z,8.60
2022-08-08T05:30:15.480Z,7.90
2022-08-08T05:35:27.778Z,7.20
2022-08-08T05:38:21.973Z,7.20
2022-08-08T05:41:05.359Z,7.10
2022-08-08T05:44:03.294Z,8.40
2022-08-08T05:46:37.958Z,7.40
2022-08-08T05:49:12.111Z,6.00
2022-08-08T05:51:50.939Z,8.10
2022-08-08T05:54:50.247Z,6.10
2022-08-08T05:58:04.510Z,8.30
2022-08-08T06:00:25.656Z,9.80
2022-08-08T06:03:24.854Z,8.00
2022-08-08T06:06:06.811Z,6.00
2022-08-08T06:08:55.055Z,7.80
2022-08-08T06:11:37.100Z,6.10
2022-08-08T06:14:19.627Z,7.50
2022-08-08T06:16:53.900Z,6.00
2022-08-08T06:19:38.178Z,8.10
2022-08-08T06:25:10.525Z,4.40
2022-08-08T06:27:53.228Z,5.20
2022-08-08T06:30:28.855Z,6.70
2022-08-08T06:33:05.208Z,3.90
2022-08-08T06:36:07.432Z,5.10
2022-08-08T06:38:48.423Z,4.20
2022-08-08T06:41:24.471Z,4.70
2022-08-08T06:44:05.740Z,4.60
2022-08-08T06:46:46.224Z,3.30
2022-08-08T06:49:55.664Z,4.40
2022-08-08T06:52:19.014Z,5.60
2022-08-08T06:54:52.570Z,3.20
2022-08-08T06:57:29.097Z,3.60
2022-08-08T07:00:30.049Z,3.30
2022-08-08T07:03:08.219Z,3.80
2022-08-08T07:05:45.354Z,4.60
2022-08-08T07:08:39.956Z,5.00
2022-08-08T07:11:22.470Z,2.40
2022-08-08T07:14:02.957Z,7.90
2022-08-08T07:16:51.077Z,6.30
2022-08-08T07:19:39.781Z,4.50
2022-08-08T07:22:19.195Z,6.10
2022-08-08T07:25:00.369Z,7.20
2022-08-08T07:28:01.818Z,3.60
2022-08-08T07:30:36.795Z,4.70
2022-08-08T07:33:12.142Z,7.30
2022-08-08T07:35:54.577Z,4.10
2022-08-08T07:38:31.077Z,3.50
2022-08-08T07:41:23.703Z,1.80
2022-08-08T07:44:09.189Z,3.10
2022-08-08T07:46:58.292Z,3.10
2022-08-08T07:49:31.588Z,2.30
2022-08-08T07:52:08.526Z,3.00
2022-08-08T07:54:55.066Z,3.40
2022-08-08T07:57:48.133Z,4.60
2022-08-08T08:00:25.440Z,2.90
2022-08-08T08:03:20.740Z,4.30
2022-08-08T08:06:02.302Z,2.60
2022-08-08T08:08:52.320Z,2.20
2022-08-08T08:11:33.982Z,3.80
2022-08-08T08:14:15.753Z,3.70
2022-08-08T08:16:52.338Z,3.40
2022-08-08T08:19:45.517Z,6.60
2022-08-08T08:22:25.501Z,2.70
2022-08-08T08:25:07.707Z,2.80
2022-08-08T08:27:46.616Z,3.60
2022-08-08T08:30:20.645Z,4.10
2022-08-08T08:33:00.205Z,4.50
2022-08-08T08:36:19.524Z,6.50
2022-08-08T08:38:27.322Z,3.20
2022-08-08T08:41:17.211Z,5.20
2022-08-08T08:43:53.152Z,4.20
2022-08-08T08:46:55.641Z,3.90
2022-08-08T08:49:34.552Z,5.00
2022-08-08T08:52:10.340Z,4.20
2022-08-08T08:54:43.932Z,4.90
2022-08-08T08:57:19.435Z,6.30
2022-08-08T09:00:01.436Z,4.10
2022-08-08T09:02:42.396Z,4.10
2022-08-08T09:05:48.837Z,4.40
2022-08-08T09:08:12.730Z,5.60
2022-08-08T09:10:52.229Z,3.50
2022-08-08T09:13:28.243Z,2.20
2022-08-08T09:16:03.817Z,2.80
2022-08-08T09:18:44.254Z,2.50
2022-08-08T09:22:00.862Z,3.30
2022-08-08T09:24:17.702Z,3.90
2022-08-08T09:27:06.499Z,4.90
2022-08-08T09:29:56.915Z,3.70
2022-08-08T09:32:39.418Z,2.90
2022-08-08T09:35:32.040Z,2.30
2022-08-08T09:38:09.632Z,1.90
2022-08-08T09:40:57.373Z,3.00
2022-08-08T09:43:40.632Z,3.70
2022-08-08T09:46:31.224Z,3.50
2022-08-08T09:49:41.340Z,3.80
2022-08-08T09:52:06.138Z,3.70
2022-08-08T09:54:46.689Z,4.40
2022-08-08T09:57:28.460Z,3.60
2022-08-08T10:03:06.820Z,2.50
2022-08-08T10:05:42.365Z,6.20
2022-08-08T10:08:20.198Z,6.10
2022-08-08T10:11:02.032Z,3.80
2022-08-08T10:13:59.912Z,3.20
2022-08-08T10:19:13.696Z,3.10
2022-08-08T10:21:51.264Z,4.20
2022-08-08T10:24:28.486Z,5.50
2022-08-08T10:27:05.535Z,5.20
2022-08-08T10:30:00.633Z,4.10
2022-08-08T10:32:37.703Z,3.00
2022-08-08T10:35:30.305Z,2.60
2022-08-08T10:38:16.647Z,3.80
2022-08-08T10:40:55.408Z,5.00
2022-08-08T10:43:38.832Z,3.50
2022-08-08T10:46:29.655Z,4.10
2022-08-08T10:49:03.868Z,3.50
2022-08-08T10:51:47.178Z,3.00
2022-08-08T10:54:26.913Z,2.00
2022-08-08T10:57:05.533Z,3.40
2022-08-08T10:59:45.894Z,2.10
2022-08-08T11:02:26.712Z,2.50
2022-08-08T11:05:05.455Z,5.90
2022-08-08T11:08:30.742Z,2.80
2022-08-08T11:10:46.659Z,1.80
2022-08-08T11:13:29.084Z,3.90
2022-08-08T11:16:08.001Z,2.90
2022-08-08T11:18:48.170Z,3.30
2022-08-08T11:21:34.933Z,3.90
2022-08-08T11:24:11.419Z,3.00
2022-08-08T11:26:56.653Z,2.20
2022-08-08T11:29:50.949Z,2.80
2022-08-08T11:32:31.678Z,2.50
2022-08-08T11:35:27.243Z,3.60
2022-08-08T11:38:35.919Z,4.40
2022-08-08T11:40:59.097Z,5.90
2022-08-08T11:43:39.383Z,2.90
2022-08-08T11:46:17.841Z,2.10
2022-08-08T11:48:52.768Z,1.90
2022-08-08T11:51:29.947Z,3.40
2022-08-08T11:54:26.702Z,2.80
2022-08-08T11:57:16.646Z,2.60
2022-08-08T12:02:55.762Z,2.00
2022-08-08T12:05:40.010Z,3.10
2022-08-08T12:08:13.165Z,3.50
2022-08-08T12:10:53.991Z,3.50
2022-08-08T12:13:38.231Z,3.50
2022-08-08T12:16:30.819Z,4.20
2022-08-08T12:19:14.153Z,3.40
2022-08-08T12:22:00.492Z,3.30
2022-08-08T12:24:53.858Z,5.40
2022-08-08T12:27:45.548Z,2.00
2022-08-08T12:30:31.088Z,2.40
2022-08-08T12:33:07.715Z,3.40
2022-08-08T12:35:52.818Z,3.70
2022-08-08T12:38:31.285Z,2.90
2022-08-08T12:41:33.655Z,3.00
2022-08-08T12:44:30.402Z,3.00
2022-08-08T12:47:08.122Z,4.60
2022-08-08T12:49:55.786Z,3.00
2022-08-08T12:52:32.640Z,5.60
2022-08-08T12:55:14.391Z,6.10
2022-08-08T13:00:51.647Z,5.10
2022-08-08T13:03:35.579Z,3.00
2022-08-08T13:06:15.012Z,3.20
2022-08-08T13:08:53.069Z,3.70
2022-08-08T13:12:19.899Z,3.30
2022-08-08T13:14:53.455Z,4.00
2022-08-08T13:18:09.182Z,2.00
2022-08-08T13:20:27.321Z,4.80
2022-08-08T13:23:31.101Z,2.90
2022-08-08T13:26:01.598Z,3.60
2022-08-08T13:28:48.915Z,2.90
2022-08-08T13:31:22.717Z,4.30
2022-08-08T13:33:56.080Z,3.60
2022-08-08T13:36:29.677Z,3.70
2022-08-08T13:39:04.982Z,5.10
2022-08-08T13:41:52.777Z,6.00
2022-08-08T13:44:32.111Z,5.30
2022-08-08T13:47:07.072Z,9.20
2022-08-08T13:50:36.016Z,5.90
2022-08-08T13:52:37.681Z,3.80
2022-08-08T13:55:14.001Z,5.80
2022-08-08T13:58:08.336Z,7.50
2022-08-08T14:00:51.383Z,4.90
2022-08-08T14:03:52.410Z,6.60
2022-08-08T14:06:33.105Z,2.60
2022-08-08T14:09:24.523Z,2.60
2022-08-08T14:12:06.004Z,2.50
2022-08-08T14:14:41.351Z,4.90
2022-08-08T14:17:22.421Z,2.30
2022-08-08T14:20:15.763Z,4.20
2022-08-08T14:23:20.968Z,2.10
2022-08-08T14:26:11.124Z,3.80
2022-08-08T14:29:06.150Z,3.40
2022-08-08T14:32:09.371Z,3.60
2022-08-08T14:34:51.491Z,4.40
2022-08-08T14:37:27.909Z,3.50
2022-08-08T14:40:24.580Z,2.40
2022-08-08T14:43:01.540Z,3.90
2022-08-08T14:46:01.985Z,4.60
2022-08-08T14:48:56.993Z,2.90
2022-08-08T14:51:52.255Z,3.70
2022-08-08T14:54:28.604Z,3.40
2022-08-08T14:57:04.233Z,5.40
2022-08-08T14:59:50.191Z,5.50
2022-08-08T15:02:30.965Z,3.50
2022-08-08T15:05:08.271Z,2.30
2022-08-08T15:07:53.758Z,4.70
2022-08-08T15:13:06.966Z,5.00
2022-08-08T15:16:03.320Z,4.80
2022-08-08T15:18:33.237Z,3.90
2022-08-08T15:21:08.980Z,5.10
2022-08-08T15:23:42.580Z,5.30
2022-08-08T15:26:16.731Z,3.60
2022-08-08T15:28:53.357Z,3.20
2022-08-08T15:32:03.661Z,3.50
2022-08-08T15:34:29.509Z,3.20
2022-08-08T15:37:06.249Z,4.10
2022-08-08T15:39:41.349Z,3.90
2022-08-08T15:42:24.021Z,4.30
2022-08-08T15:45:11.137Z,4.40
2022-08-08T15:48:05.541Z,2.70
2022-08-08T15:50:56.888Z,2.60
2022-08-08T15:53:40.224Z,3.70
2022-08-08T15:56:23.217Z,1.70
2022-08-08T15:58:56.517Z,4.60
2022-08-08T16:01:40.486Z,3.80
2022-08-08T16:04:22.804Z,3.90
2022-08-08T16:07:03.466Z,3.60
2022-08-08T16:13:15.515Z,6.70
2022-08-08T16:13:27.782Z,6.30
2022-08-08T16:15:23.396Z,4.00
2022-08-08T16:18:06.215Z,4.40
2022-08-08T16:20:45.422Z,6.60
2022-08-08T16:23:24.422Z,4.80
2022-08-08T16:26:04.416Z,6.20
2022-08-08T16:28:37.781Z,6.20
2022-08-08T16:31:14.537Z,4.80
2022-08-08T16:33:49.809Z,3.80
2022-08-08T16:36:33.353Z,4.20
2022-08-08T16:39:09.899Z,4.00
2022-08-08T16:41:52.986Z,4.90
2022-08-08T16:44:33.682Z,3.30
2022-08-08T16:47:31.898Z,4.40
2022-08-08T16:55:03.230Z,4.40
2022-08-08T16:55:54.208Z,5.60
2022-08-08T16:58:34.377Z,4.60
2022-08-08T17:01:12.459Z,6.60
2022-08-08T17:03:58.147Z,4.80
2022-08-08T17:06:36.736Z,3.80
2022-08-08T17:09:19.662Z,5.80
2022-08-08T17:11:59.436Z,6.20
2022-08-08T17:14:35.602Z,4.20
2022-08-08T17:17:41.609Z,6.40
2022-08-08T17:20:02.772Z,6.80
2022-08-08T17:22:42.017Z,4.60
2022-08-08T17:25:16.805Z,5.40
2022-08-08T17:27:50.805Z,5.60
2022-08-08T17:30:29.389Z,6.00
2022-08-08T17:34:35.792Z,9.30
2022-08-08T17:36:12.360Z,9.30
2022-08-08T17:38:51.262Z,8.70
2022-08-08T17:41:30.621Z,6.00
2022-08-08T17:44:12.641Z,6.60
2022-08-08T17:46:47.331Z,11.50
2022-08-08T17:49:37.964Z,7.30
2022-08-08T17:52:16.037Z,5.90
2022-08-08T17:54:56.211Z,8.50
2022-08-08T17:57:35.089Z,9.10
2022-08-08T18:00:19.669Z,10.30
2022-08-08T18:03:09.170Z,8.20
2022-08-08T18:05:49.139Z,8.90
2022-08-08T18:08:41.635Z,10.50
2022-08-08T18:11:17.494Z,11.40
2022-08-08T18:13:50.737Z,8.50
2022-08-08T18:16:23.850Z,10.40
2022-08-08T18:19:02.697Z,10.30
2022-08-08T18:22:01.748Z,6.60
2022-08-08T18:24:30.743Z,10.70
2022-08-08T18:27:06.270Z,7.70
2022-08-08T18:29:50.831Z,4.10
2022-08-08T18:32:25.022Z,7.90
2022-08-08T18:34:59.222Z,6.30
2022-08-08T18:37:34.983Z,9.70
2022-08-08T18:40:21.413Z,7.50
2022-08-08T18:43:16.518Z,3.80
2022-08-08T18:46:52.874Z,7.50
2022-08-08T18:48:43.440Z,6.80
2022-08-08T18:51:41.968Z,6.20
2022-08-08T18:54:22.613Z,11.40
2022-08-08T18:56:58.178Z,5.60
2022-08-08T18:59:34.787Z,10.70
2022-08-08T19:02:27.761Z,7.10
2022-08-08T19:05:03.018Z,6.20
2022-08-08T19:07:39.002Z,8.80
2022-08-08T19:10:26.308Z,9.00
2022-08-08T19:13:00.208Z,8.30
2022-08-08T19:15:36.074Z,6.90
2022-08-08T19:18:31.903Z,6.30
2022-08-08T19:21:05.484Z,5.30
2022-08-08T19:23:59.066Z,5.20
2022-08-08T19:26:32.608Z,5.00
2022-08-08T19:29:06.305Z,7.20
2022-08-08T19:31:40.839Z,6.70
2022-08-08T19:34:36.694Z,8.00
2022-08-08T19:37:16.839Z,5.60
2022-08-08T19:39:50.244Z,7.90
2022-08-08T19:42:24.426Z,6.40
2022-08-08T19:45:07.229Z,7.40
2022-08-08T19:47:40.728Z,6.60
2022-08-08T19:50:15.193Z,8.50
2022-08-08T19:52:54.637Z,7.20
2022-08-08T19:55:34.146Z,5.30
2022-08-08T19:58:08.082Z,3.80
2022-08-08T20:00:41.490Z,5.30
2022-08-08T20:04:01.243Z,5.70
2022-08-08T20:06:14.776Z,3.70
2022-08-08T20:08:51.062Z,3.90
2022-08-08T20:11:24.739Z,4.40
2022-08-08T20:14:31.275Z,7.10
2022-08-08T20:16:53.154Z,5.40
2022-08-08T20:19:26.677Z,4.40
2022-08-08T20:22:13.075Z,4.50
2022-08-08T20:24:54.163Z,5.60
2022-08-08T20:27:32.944Z,5.10
2022-08-08T20:30:53.842Z,4.20
2022-08-08T20:33:19.898Z,4.50
2022-08-08T20:35:58.810Z,5.30
2022-08-08T20:38:39.733Z,7.70
2022-08-08T20:41:19.028Z,6.20
2022-08-08T20:43:52.675Z,4.20
2022-08-08T20:46:25.952Z,4.70
2022-08-08T20:49:02.522Z,3.70
2022-08-08T20:51:55.839Z,5.10
2022-08-08T20:54:30.336Z,4.90
2022-08-08T20:57:17.198Z,9.10
2022-08-08T20:59:52.432Z,9.60
2022-08-08T21:02:26.662Z,5.10
2022-08-08T21:05:01.725Z,7.20
2022-08-08T21:08:07.898Z,5.50
2022-08-08T21:10:28.881Z,5.50
2022-08-08T21:13:05.764Z,5.90
2022-08-08T21:16:05.777Z,6.00
2022-08-08T21:18:35.908Z,10.60
2022-08-08T21:21:20.765Z,6.10
2022-08-08T21:24:19.481Z,4.30
2022-08-08T21:27:02.197Z,5.00
2022-08-08T21:30:02.812Z,3.80
2022-08-08T21:32:31.578Z,4.50
2022-08-08T21:36:17.885Z,6.00
2022-08-08T21:38:03.974Z,7.10
2022-08-08T21:40:38.946Z,4.50
2022-08-08T21:43:34.341Z,7.40
2022-08-08T21:48:21.283Z,3.80
2022-08-08T21:49:03.782Z,7.60
2022-08-08T21:54:36.675Z,4.90
2022-08-08T21:54:58.246Z,6.30
2022-08-08T21:57:28.122Z,4.80
2022-08-08T22:00:05.066Z,7.20
2022-08-08T22:02:47.612Z,6.50
2022-08-08T22:05:21.549Z,7.90
2022-08-08T22:08:00.202Z,5.10
2022-08-08T22:10:36.611Z,6.40
2022-08-08T22:13:17.197Z,7.40
2022-08-08T22:15:58.780Z,5.60
2022-08-08T22:18:36.316Z,4.10
2022-08-08T22:21:15.471Z,8.10
2022-08-08T22:23:53.740Z,7.20
2022-08-08T22:26:30.846Z,5.10
2022-08-08T22:29:57.892Z,8.40
2022-08-08T22:32:02.325Z,6.60
2022-08-08T22:34:39.226Z,7.80
2022-08-08T22:37:15.103Z,3.70
2022-08-08T22:40:16.720Z,4.40
2022-08-08T22:42:50.397Z,6.40
2022-08-08T22:45:23.419Z,5.70
2022-08-08T22:47:56.405Z,5.50
2022-08-08T22:50:30.657Z,3.10
2022-08-08T22:54:29.532Z,5.30
2022-08-08T22:56:01.771Z,5.80
2022-08-08T22:58:38.040Z,5.10
2022-08-08T23:01:16.789Z,6.10
2022-08-08T23:04:06.926Z,4.80
2022-08-08T23:06:46.129Z,4.80
2022-08-08T23:09:21.512Z,5.40
2022-08-08T23:12:28.755Z,5.00
2022-08-08T23:14:59.898Z,5.20
2022-08-08T23:17:46.716Z,5.50
2022-08-08T23:20:31.958Z,5.60
2022-08-08T23:23:05.699Z,5.40
2022-08-08T23:25:48.200Z,7.80
2022-08-08T23:28:22.444Z,6.50
2022-08-08T23:30:55.804Z,6.50
2022-08-08T23:34:16.610Z,6.20
2022-08-08T23:36:26.291Z,5.80
2022-08-08T23:38:59.847Z,7.20
2022-08-08T23:41:43.598Z,7.30
2022-08-08T23:44:19.552Z,7.00
2022-08-08T23:49:07.547Z,5.20
2022-08-08T23:50:03.020Z,5.30
2022-08-08T23:52:39.101Z,9.00
2022-08-08T23:55:22.914Z,9.00
2022-08-08T23:57:56.818Z,6.60
